sensor_id;sensor_type;location;lat;lon;timestamp;pressure;altitude;pressure_sealevel;temperature;humidity
32330;BME280;18807;52.434;13.238;2023-04-03T00:00:12;102619.75;;;1.90;85.42
32330;BME280;18807;52.434;13.238;2023-04-03T00:08:00;102621.50;;;1.89;85.58
32330;BME280;18807;52.434;13.238;2023-04-03T00:15:47;102622.03;;;1.85;85.14
32330;BME280;18807;52.434;13.238;2023-04-03T00:24:02;102624.66;;;1.85;84.16
32330;BME280;18807;52.434;13.238;2023-04-03T00:32:02;102628.91;;;1.83;84.42
32330;BME280;18807;52.434;13.238;2023-04-03T00:39:49;102626.84;;;1.79;83.58
32330;BME280;18807;52.434;13.238;2023-04-03T00:47:25;102632.50;;;1.74;83.26
32330;BME280;18807;52.434;13.238;2023-04-03T00:55:02;102635.50;;;1.78;83.48
32330;BME280;18807;52.434;13.238;2023-04-03T01:03:03;102631.84;;;1.76;83.43
32330;BME280;18807;52.434;13.238;2023-04-03T01:11:04;102645.19;;;1.68;83.02
32330;BME280;18807;52.434;13.238;2023-04-03T01:18:42;102639.56;;;1.63;83.05
32330;BME280;18807;52.434;13.238;2023-04-03T01:26:31;102644.81;;;1.63;83.79
32330;BME280;18807;52.434;13.238;2023-04-03T01:34:33;102636.53;;;1.59;83.89
32330;BME280;18807;52.434;13.238;2023-04-03T01:42:25;102657.25;;;1.54;84.00
32330;BME280;18807;52.434;13.238;2023-04-03T01:50:04;102647.88;;;1.36;85.78
32330;BME280;18807;52.434;13.238;2023-04-03T01:57:55;102657.66;;;1.27;86.98
32330;BME280;18807;52.434;13.238;2023-04-03T02:13:49;102668.50;;;1.10;90.05
32330;BME280;18807;52.434;13.238;2023-04-03T02:21:53;102670.59;;;1.04;90.67
32330;BME280;18807;52.434;13.238;2023-04-03T02:29:28;102661.28;;;1.08;90.28
32330;BME280;18807;52.434;13.238;2023-04-03T02:37:18;102673.25;;;1.04;91.58
32330;BME280;18807;52.434;13.238;2023-04-03T02:44:53;102699.81;;;1.07;91.51
32330;BME280;18807;52.434;13.238;2023-04-03T02:52:40;102704.28;;;0.98;92.02
32330;BME280;18807;52.434;13.238;2023-04-03T03:00:19;102703.53;;;0.79;94.41
32330;BME280;18807;52.434;13.238;2023-04-03T03:08:15;102700.69;;;0.66;96.82
32330;BME280;18807;52.434;13.238;2023-04-03T03:16:33;102712.38;;;0.50;98.76
32330;BME280;18807;52.434;13.238;2023-04-03T03:24:14;102711.72;;;0.52;98.80
32330;BME280;18807;52.434;13.238;2023-04-03T03:32:10;102721.84;;;0.38;100.00
32330;BME280;18807;52.434;13.238;2023-04-03T03:39:49;102725.91;;;0.34;100.00
32330;BME280;18807;52.434;13.238;2023-04-03T03:47:28;102724.31;;;0.26;100.00
32330;BME280;18807;52.434;13.238;2023-04-03T03:55:53;102722.38;;;0.24;100.00
32330;BME280;18807;52.434;13.238;2023-04-03T04:03:29;102723.25;;;0.24;100.00
32330;BME280;18807;52.434;13.238;2023-04-03T04:11:16;102713.53;;;0.23;100.00
32330;BME280;18807;52.434;13.238;2023-04-03T04:27:56;102715.38;;;0.14;100.00
32330;BME280;18807;52.434;13.238;2023-04-03T04:35:41;102722.31;;;0.14;100.00
32330;BME280;18807;52.434;13.238;2023-04-03T04:43:39;102730.25;;;0.24;100.00
32330;BME280;18807;52.434;13.238;2023-04-03T04:51:36;102737.47;;;0.26;100.00
32330;BME280;18807;52.434;13.238;2023-04-03T05:07:47;102747.31;;;0.29;100.00
32330;BME280;18807;52.434;13.238;2023-04-03T05:15:57;102754.78;;;0.24;100.00
32330;BME280;18807;52.434;13.238;2023-04-03T05:23:41;102755.31;;;0.20;100.00
32330;BME280;18807;52.434;13.238;2023-04-03T05:31:25;102762.81;;;0.26;100.00
32330;BME280;18807;52.434;13.238;2023-04-03T05:47:53;102772.31;;;0.44;100.00
32330;BME280;18807;52.434;13.238;2023-04-03T06:04:31;102783.25;;;0.78;100.00
32330;BME280;18807;52.434;13.238;2023-04-03T06:13:08;102790.97;;;0.97;100.00
32330;BME280;18807;52.434;13.238;2023-04-03T06:21:05;102792.53;;;1.15;99.89
32330;BME280;18807;52.434;13.238;2023-04-03T06:28:51;102794.91;;;1.32;96.92
32330;BME280;18807;52.434;13.238;2023-04-03T06:36:45;102798.41;;;1.52;92.42
32330;BME280;18807;52.434;13.238;2023-04-03T06:44:57;102801.59;;;1.80;87.24
32330;BME280;18807;52.434;13.238;2023-04-03T06:52:45;102813.22;;;2.03;80.93
32330;BME280;18807;52.434;13.238;2023-04-03T07:00:36;102822.78;;;2.13;77.36
32330;BME280;18807;52.434;13.238;2023-04-03T07:08:29;102820.78;;;2.42;78.05
32330;BME280;18807;52.434;13.238;2023-04-03T07:16:48;102841.84;;;2.52;74.76
32330;BME280;18807;52.434;13.238;2023-04-03T07:24:26;102848.50;;;2.80;71.86
32330;BME280;18807;52.434;13.238;2023-04-03T07:32:41;102846.22;;;2.85;71.00
32330;BME280;18807;52.434;13.238;2023-04-03T07:57:58;102873.19;;;3.14;60.74
32330;BME280;18807;52.434;13.238;2023-04-03T08:06:01;102858.16;;;3.24;61.04
32330;BME280;18807;52.434;13.238;2023-04-03T08:14:01;102858.22;;;3.93;60.16
32330;BME280;18807;52.434;13.238;2023-04-03T08:21:58;102859.34;;;4.43;57.97
32330;BME280;18807;52.434;13.238;2023-04-03T08:30:30;102868.91;;;3.95;57.65
32330;BME280;18807;52.434;13.238;2023-04-03T08:38:44;102859.06;;;3.81;57.43
32330;BME280;18807;52.434;13.238;2023-04-03T08:46:59;102839.28;;;3.76;58.30
32330;BME280;18807;52.434;13.238;2023-04-03T08:55:07;102847.47;;;4.38;59.46
32330;BME280;18807;52.434;13.238;2023-04-03T09:03:00;102855.41;;;5.10;55.28
32330;BME280;18807;52.434;13.238;2023-04-03T09:11:12;102843.03;;;4.98;53.21
32330;BME280;18807;52.434;13.238;2023-04-03T09:27:33;102850.69;;;5.31;54.99
32330;BME280;18807;52.434;13.238;2023-04-03T09:35:51;102847.03;;;5.92;50.15
32330;BME280;18807;52.434;13.238;2023-04-03T09:43:51;102856.56;;;5.64;48.90
32330;BME280;18807;52.434;13.238;2023-04-03T10:00:34;102846.47;;;5.59;49.08
32330;BME280;18807;52.434;13.238;2023-04-03T10:08:32;102837.44;;;5.31;48.88
32330;BME280;18807;52.434;13.238;2023-04-03T10:16:14;102823.13;;;5.66;49.08
32330;BME280;18807;52.434;13.238;2023-04-03T10:23:54;102816.78;;;5.51;49.20
32330;BME280;18807;52.434;13.238;2023-04-03T10:31:37;102826.63;;;5.28;48.24
32330;BME280;18807;52.434;13.238;2023-04-03T10:39:23;102813.97;;;5.24;48.42
32330;BME280;18807;52.434;13.238;2023-04-03T10:47:11;102798.69;;;5.33;50.07
32330;BME280;18807;52.434;13.238;2023-04-03T10:54:58;102792.91;;;5.38;48.53
32330;BME280;18807;52.434;13.238;2023-04-03T11:02:37;102778.31;;;5.32;47.19
32330;BME280;18807;52.434;13.238;2023-04-03T11:10:17;102780.78;;;5.55;47.72
32330;BME280;18807;52.434;13.238;2023-04-03T11:18:00;102769.19;;;5.53;47.60
32330;BME280;18807;52.434;13.238;2023-04-03T11:25:37;102766.31;;;5.76;48.33
32330;BME280;18807;52.434;13.238;2023-04-03T11:33:27;102761.94;;;5.76;48.36
32330;BME280;18807;52.434;13.238;2023-04-03T11:41:06;102752.16;;;5.75;48.03
32330;BME280;18807;52.434;13.238;2023-04-03T11:48:54;102755.28;;;5.70;48.91
32330;BME280;18807;52.434;13.238;2023-04-03T11:56:31;102757.84;;;5.68;48.92
32330;BME280;18807;52.434;13.238;2023-04-03T12:04:12;102748.47;;;5.60;50.74
32330;BME280;18807;52.434;13.238;2023-04-03T12:11:49;102763.97;;;5.54;51.01
32330;BME280;18807;52.434;13.238;2023-04-03T12:19:31;102752.97;;;5.35;49.63
32330;BME280;18807;52.434;13.238;2023-04-03T12:27:26;102757.53;;;5.51;50.99
32330;BME280;18807;52.434;13.238;2023-04-03T12:35:20;102750.00;;;5.57;51.42
32330;BME280;18807;52.434;13.238;2023-04-03T12:43:31;102746.41;;;5.30;52.41
32330;BME280;18807;52.434;13.238;2023-04-03T12:51:13;102742.38;;;5.35;51.94
32330;BME280;18807;52.434;13.238;2023-04-03T12:58:51;102748.06;;;5.41;52.06
32330;BME280;18807;52.434;13.238;2023-04-03T13:06:28;102736.97;;;5.34;49.97
32330;BME280;18807;52.434;13.238;2023-04-03T13:14:23;102731.66;;;5.34;48.16
32330;BME280;18807;52.434;13.238;2023-04-03T13:22:03;102722.88;;;5.48;49.43
32330;BME280;18807;52.434;13.238;2023-04-03T13:29:39;102731.34;;;5.42;49.29
32330;BME280;18807;52.434;13.238;2023-04-03T13:37:23;102721.16;;;5.35;50.34
32330;BME280;18807;52.434;13.238;2023-04-03T13:45:14;102720.34;;;5.36;51.16
32330;BME280;18807;52.434;13.238;2023-04-03T13:52:53;102717.47;;;5.07;51.93
32330;BME280;18807;52.434;13.238;2023-04-03T14:00:48;102720.53;;;5.13;52.86
32330;BME280;18807;52.434;13.238;2023-04-03T14:08:24;102708.28;;;5.02;51.80
32330;BME280;18807;52.434;13.238;2023-04-03T14:16:19;102708.59;;;5.07;51.44
32330;BME280;18807;52.434;13.238;2023-04-03T14:23:55;102701.78;;;5.10;52.54
32330;BME280;18807;52.434;13.238;2023-04-03T14:31:30;102714.09;;;5.10;53.21
32330;BME280;18807;52.434;13.238;2023-04-03T14:39:07;102706.47;;;5.14;54.60
32330;BME280;18807;52.434;13.238;2023-04-03T14:46:43;102711.47;;;5.10;52.66
32330;BME280;18807;52.434;13.238;2023-04-03T14:54:29;102698.53;;;5.01;51.29
32330;BME280;18807;52.434;13.238;2023-04-03T15:02:23;102688.34;;;5.07;51.16
32330;BME280;18807;52.434;13.238;2023-04-03T15:10:02;102682.63;;;5.27;51.15
32330;BME280;18807;52.434;13.238;2023-04-03T15:17:38;102680.91;;;5.41;52.80
32330;BME280;18807;52.434;13.238;2023-04-03T15:25:14;102673.66;;;5.25;53.53
32330;BME280;18807;52.434;13.238;2023-04-03T15:32:48;102677.22;;;5.13;54.95
32330;BME280;18807;52.434;13.238;2023-04-03T15:40:24;102678.84;;;5.11;56.31
32330;BME280;18807;52.434;13.238;2023-04-03T15:47:58;102675.91;;;5.06;57.48
32330;BME280;18807;52.434;13.238;2023-04-03T15:55:35;102683.00;;;4.94;58.07
32330;BME280;18807;52.434;13.238;2023-04-03T16:03:11;102678.94;;;4.86;59.32
32330;BME280;18807;52.434;13.238;2023-04-03T16:10:47;102678.13;;;4.87;61.00
32330;BME280;18807;52.434;13.238;2023-04-03T16:18:21;102681.38;;;4.83;60.61
32330;BME280;18807;52.434;13.238;2023-04-03T16:25:56;102681.78;;;4.76;61.36
32330;BME280;18807;52.434;13.238;2023-04-03T16:33:30;102684.56;;;4.66;59.94
32330;BME280;18807;52.434;13.238;2023-04-03T16:41:06;102684.16;;;4.60;60.13
32330;BME280;18807;52.434;13.238;2023-04-03T16:48:39;102686.03;;;4.50;61.24
32330;BME280;18807;52.434;13.238;2023-04-03T16:56:15;102690.22;;;4.46;62.28
32330;BME280;18807;52.434;13.238;2023-04-03T17:03:50;102690.75;;;4.54;62.98
32330;BME280;18807;52.434;13.238;2023-04-03T17:11:25;102674.06;;;4.55;63.43
32330;BME280;18807;52.434;13.238;2023-04-03T17:19:00;102656.72;;;4.47;64.36
32330;BME280;18807;52.434;13.238;2023-04-03T17:26:36;102677.56;;;4.42;65.73
32330;BME280;18807;52.434;13.238;2023-04-03T17:34:10;102676.13;;;4.34;66.21
32330;BME280;18807;52.434;13.238;2023-04-03T17:41:45;102683.84;;;4.31;67.15
32330;BME280;18807;52.434;13.238;2023-04-03T17:49:21;102688.59;;;4.24;67.19
32330;BME280;18807;52.434;13.238;2023-04-03T17:56:56;102692.75;;;4.20;67.28
32330;BME280;18807;52.434;13.238;2023-04-03T18:04:30;102695.88;;;4.14;67.55
32330;BME280;18807;52.434;13.238;2023-04-03T18:12:06;102696.47;;;4.10;68.20
32330;BME280;18807;52.434;13.238;2023-04-03T18:19:41;102691.09;;;4.09;68.96
32330;BME280;18807;52.434;13.238;2023-04-03T18:27:18;102703.88;;;4.03;70.79
32330;BME280;18807;52.434;13.238;2023-04-03T18:35:11;102703.31;;;3.95;72.22
32330;BME280;18807;52.434;13.238;2023-04-03T18:42:47;102708.25;;;3.91;72.78
32330;BME280;18807;52.434;13.238;2023-04-03T18:50:21;102706.44;;;3.90;72.78
32330;BME280;18807;52.434;13.238;2023-04-03T18:57:56;102706.22;;;3.87;73.16
32330;BME280;18807;52.434;13.238;2023-04-03T19:05:31;102697.41;;;3.75;72.49
32330;BME280;18807;52.434;13.238;2023-04-03T19:13:06;102697.72;;;3.68;72.82
32330;BME280;18807;52.434;13.238;2023-04-03T19:20:40;102696.50;;;3.63;73.45
32330;BME280;18807;52.434;13.238;2023-04-03T19:28:16;102692.69;;;3.59;73.73
32330;BME280;18807;52.434;13.238;2023-04-03T19:35:50;102691.47;;;3.54;75.11
32330;BME280;18807;52.434;13.238;2023-04-03T19:43:26;102687.22;;;3.45;76.24
32330;BME280;18807;52.434;13.238;2023-04-03T19:51:00;102691.44;;;3.43;76.93
32330;BME280;18807;52.434;13.238;2023-04-03T19:58:37;102696.03;;;3.34;78.97
32330;BME280;18807;52.434;13.238;2023-04-03T20:06:12;102698.69;;;3.34;79.79
32330;BME280;18807;52.434;13.238;2023-04-03T20:13:49;102693.41;;;3.34;80.50
32330;BME280;18807;52.434;13.238;2023-04-03T20:21:26;102691.69;;;3.34;81.11
32330;BME280;18807;52.434;13.238;2023-04-03T20:29:02;102695.81;;;3.31;82.11
32330;BME280;18807;52.434;13.238;2023-04-03T20:36:37;102688.59;;;3.28;82.61
32330;BME280;18807;52.434;13.238;2023-04-03T20:44:12;102696.16;;;3.24;83.03
32330;BME280;18807;52.434;13.238;2023-04-03T20:51:50;102684.38;;;3.19;83.57
32330;BME280;18807;52.434;13.238;2023-04-03T20:59:25;102678.81;;;3.04;84.53
32330;BME280;18807;52.434;13.238;2023-04-03T21:23:20;102677.94;;;2.92;85.62
32330;BME280;18807;52.434;13.238;2023-04-03T21:30:55;102677.59;;;2.88;85.99
32330;BME280;18807;52.434;13.238;2023-04-03T21:38:30;102675.84;;;2.77;86.37
32330;BME280;18807;52.434;13.238;2023-04-03T21:46:06;102676.06;;;2.68;87.06
32330;BME280;18807;52.434;13.238;2023-04-03T21:53:42;102680.16;;;2.53;88.15
32330;BME280;18807;52.434;13.238;2023-04-03T22:01:17;102668.66;;;2.41;88.70
32330;BME280;18807;52.434;13.238;2023-04-03T22:08:52;102675.88;;;2.44;88.54
32330;BME280;18807;52.434;13.238;2023-04-03T22:16:28;102665.31;;;2.44;86.52
32330;BME280;18807;52.434;13.238;2023-04-03T22:24:04;102660.03;;;2.32;86.16
32330;BME280;18807;52.434;13.238;2023-04-03T22:31:38;102656.41;;;2.20;86.62
32330;BME280;18807;52.434;13.238;2023-04-03T22:39:14;102660.72;;;2.08;86.07
32330;BME280;18807;52.434;13.238;2023-04-03T22:46:48;102664.28;;;2.08;85.77
32330;BME280;18807;52.434;13.238;2023-04-03T22:54:24;102671.03;;;2.05;84.41
32330;BME280;18807;52.434;13.238;2023-04-03T23:01:58;102671.34;;;1.98;84.46
32330;BME280;18807;52.434;13.238;2023-04-03T23:09:34;102669.03;;;1.91;83.71
32330;BME280;18807;52.434;13.238;2023-04-03T23:17:07;102672.50;;;1.80;83.60
32330;BME280;18807;52.434;13.238;2023-04-03T23:24:43;102677.66;;;1.78;83.83
32330;BME280;18807;52.434;13.238;2023-04-03T23:32:17;102673.75;;;1.73;84.15
32330;BME280;18807;52.434;13.238;2023-04-03T23:39:52;102672.75;;;1.61;84.26
32330;BME280;18807;52.434;13.238;2023-04-03T23:47:26;102665.00;;;1.63;84.21
32330;BME280;18807;52.434;13.238;2023-04-03T23:55:01;102666.06;;;1.55;84.32
